Airfield :
LOGIN :

Register | Disclaimer

   EN    FR    IT 

 










Legend :    VFR   Marginal VFR   IFR   Intensive IFR   Very Intensive IFR
Visi :
Ceiling :
>= 8 km
>= 3000ft
5 to 8 km
1000 to 3000 ft
1500m to 5 km
500 to 1000 ft
800 to 1500m
200 to 500 ft
< 800m
< 200 ft
Symbols :   Thunderstorms  Fog  Heavy snow  Heavy precipitations  Wind > 20 kt
SIGMETs :     Misc.  Thunderstorms  Icing  Turbulence  Mountain Waves  Volcanic Ashes






- Airport Elevation : 1302 ft
- IATA code : GNB


LFLS - Grenoble / St. Geoirs

CURRENT METAR :
  • 271730Z AUTO 31004KT 280V010 9999 FEW020/// BKN030/// BKN038/// ///TCU 07/05 Q1009 TEMPO 34015G25KT 4000 SHRA

EXPIRED METARs :
  • 271700Z AUTO 20005KT 130V270 9999 FEW021 SCT028 BKN034 08/05 Q1007 TEMPO 34015G25KT 4000 SHRA BKN022 FEW025TCU
  • 271630Z AUTO VRB03KT 5000 2400 -RA BR BKN029/// BKN036/// OVC049/// ///TCU 08/05 Q1007 TEMPO 34015G25KT SHRA
  • 271600Z AUTO 18007G17KT 120V250 9999 FEW025/// BKN033/// OVC041/// ///TCU 08/04 Q1006 TEMPO 4000 SHRA BECMG 34010KT
  • 271530Z AUTO 18010KT 120V250 9999 FEW026 BKN033 BKN043 08/04 Q1006 TEMPO 4000 SHRA BKN022 FEW025TCU BECMG 34010KT
  • 271500Z AUTO 18014G26KT 140V210 9999 FEW026 BKN035 OVC044 08/04 Q1006 TEMPO 4000 SHRA BKN022 FEW025TCU

TAF TAF LFLS
Valid from the 27 at 15:00 until the 28 at 15:00 UTC


271400Z 2715/2815 19015KT 9999 BKN045
TEMPO 2715/2717 19020G35KT
TEMPO 2715/2720 4000 SHRA BKN022 FEW025TCU
BECMG 2717/2719 34010KT
PROB40
TEMPO 2718/2720 34015G25KT
BECMG 2801/2803 VRB03KT CAVOK
ATIS : +33 4 76 65 55 89



MET'MAP, your aeronautical weather chart ! - Copyright ORBIFLY December 2007 - Disclaimer

ORBIFLY MET'MAP TEAM :

Programming & Development : Alexandra Zaïnal
Concept & original design : Baudouin d'Aumeries
Assistance for programming : Marc-Olivier Méhu
Technical & hardware support : Manuel Goepfert

Contact : metmap@orbifly.com




SOURCES & CREDITS :

   NOAA